Accueil
METAR-TAF:

METAR-TAF

Aéroports :

Brunei, Brunei

Aéroport international de Bandar Seri Begawan

latitude: 04-56N, longitude: 114-56E, altitude: 22 m

Observation

Le bulletin a été fait il y a 22 minutes, à 16:00 UTC
Vent 1 kt de nord-ouest
Température 27°C
Humidité 89%
Pression 1011 hPa
Visibilité 10 km ou plus
Quelques nuages à une hauteur de 1500 ft
Nuages fragmentés à une hauteur de 28000 ft

METAR: WBSB 261600Z 32001KT 9999 FEW015 BKN280 27/25 Q1011 NOSIG

Heure: 00:22 (16:22 UTC)

Prévision

Le bulletin a été fait il y a 5 heures et 32 minutes, à 10:50 UTC
Prévision valable du 26 à 12 UTC au 27 à 18 UTC
Vent 6 kt de nord-est
Visibilité 10 km ou plus
Quelques nuages à une hauteur de 1500 ft
Nuages fragmentés à une hauteur de 30000 ft
Evoluant progressivement
du 26 à 14 UTC au 26 à 16 UTC
Vent 3 kt de sud
Quelques nuages à une hauteur de 1400 ft

TAF: WBSB 261050Z 2612/2718 04006KT 9999 FEW015 BKN300 BECMG 2614/2616 18003KT FEW014

Observations et prévisions météorologiques de plus de 4000 aéroports (messages METAR et TAF).

Les stations disponibles sont représentées par des disques jaunes et rouges sur la carte.

Passer la souris dessus pour voir le nom de la station.

Cliquer dessus pour voir les observations et prévisions météorologiques.

Pour changer de carte: cliquez sur les boutons verts avec une croix noire pour zoomer, sur le bouton vert avec un tiret pour effectuer un zoom arrière, ou sur les flèches vertes pour les cartes adjacentes.


METAR-TAF: